2004 CHABA (2004230N09172)


On this page: IBTrACS data - Map and Plots - Positions - Intensities - Original source data

Summary

Start Aug 17
End Sep 5
Basin WP
LMI 155 kt
Sources jtwc_wp
tokyo
cma
hko
In WMO? Yes
Previous storm 2004 MEGI (WP)
Previous in basin 2004 MEGI (WP)
Concurrent storms 2004 DANIELLE (NA)
2004 MEGI (WP)
2004 CHABA (WP)
2004 AERE (WP)
2004 ESTELLE (EP)
2004 FRANK (EP)
2004 MISSING (EP)
2004 FRANCES (NA)
2004 MISSING (WP)
2004 SONGDA (WP)
2004 GEORGETTE (EP)
2004 HERMINE (NA)
2004 GASTON (NA)
2005 PHOEBE (SI)
2004 HOWARD (EP)
2004 IVAN (NA)
2004 SARIKA (WP)
Next in basin 2004 AERE (WP)
Next storm 2004 AERE (WP)

top of page IBTrACS Data: File Access

top of page HURSAT Data: File Access

Image of storm

top of page Plots:

Map of storm track will not appear if FTP is down
Time series of cyclone Maximum Sustained Wind will not appear if FTP is down
Time series of cyclone Minimum Central Pressure will not appear if FTP is down

top of page Track Data:Position

jtwc_wp tokyo cma hko
Date Lat Lon Lat Lon Lat Lon Lat Lon
2004-08-17 00:00:00 9.3 172.3
2004-08-17 06:00:00 9.7 170.8
2004-08-17 12:00:00 10.2 169.4
2004-08-17 18:00:00 10.5 167.9
2004-08-18 00:00:00 10.9 166.4
2004-08-18 06:00:00 11.1 165.0 11.2 165.0 11.2 165.0
2004-08-18 12:00:00 11.4 163.9 11.3 163.8 11.4 163.8
2004-08-18 18:00:00 12.0 163.0 11.8 163.0 11.8 163.0 11.9 162.9
2004-08-19 00:00:00 12.4 162.0 12.3 162.0 12.3 162.0 12.3 162.1
2004-08-19 06:00:00 12.9 161.0 12.8 161.3 12.8 161.3 12.8 161.5
2004-08-19 12:00:00 13.3 160.0 13.1 160.4 13.2 160.4 13.4 160.4
2004-08-19 18:00:00 13.7 158.9 13.6 159.1 13.6 159.1 13.4 159.1
2004-08-20 00:00:00 14.1 157.8 13.9 158.1 13.9 157.8 13.5 157.9
2004-08-20 06:00:00 14.4 156.7 14.1 156.9 14.1 156.9 14.3 156.9
2004-08-20 12:00:00 14.5 155.4 14.4 155.4 14.4 155.4 14.4 155.4
2004-08-20 18:00:00 14.6 154.2 14.5 154.2 14.5 154.2 14.6 154.2
2004-08-21 00:00:00 14.3 153.0 14.5 152.8 14.5 153.0 14.5 154.1
2004-08-21 06:00:00 14.2 151.7 14.4 151.6 14.4 151.8 14.4 151.8
2004-08-21 12:00:00 14.2 150.3 14.2 150.1 14.2 150.2 14.2 150.2
2004-08-21 18:00:00 14.2 148.9 14.2 148.6 14.2 148.6 14.3 148.7
2004-08-22 00:00:00 14.2 147.5 14.3 147.5 14.1 147.4 14.0 147.4
2004-08-22 06:00:00 14.3 146.4 14.4 146.4 14.3 146.3 14.4 146.4
2004-08-22 12:00:00 14.5 145.4 14.5 145.6 14.4 145.6 14.4 145.4
2004-08-22 18:00:00 14.9 144.6 14.8 144.8 14.8 144.8 14.8 144.8
2004-08-23 00:00:00 15.2 143.7 15.2 143.6 15.2 143.6 15.2 143.6
jtwc_wp tokyo cma hko
2004-08-23 06:00:00 15.7 142.8 15.6 142.9 15.6 142.9 15.5 142.9
2004-08-23 12:00:00 16.3 142.0 16.4 142.1 16.3 142.1 16.3 142.1
2004-08-23 18:00:00 16.9 141.2 17.1 141.1 17.0 141.1 16.9 141.1
2004-08-24 00:00:00 17.4 140.3 17.4 140.2 17.4 140.2 17.4 140.2
2004-08-24 06:00:00 18.1 139.6 18.0 139.6 18.0 139.6 18.0 139.6
2004-08-24 12:00:00 18.8 139.0 18.5 139.2 18.5 139.1 18.5 139.1
2004-08-24 18:00:00 19.6 138.6 19.4 138.7 19.4 138.7 19.4 138.6
2004-08-25 00:00:00 20.4 138.1 20.4 138.2 20.4 138.2 20.4 138.2
2004-08-25 06:00:00 21.2 137.6 21.2 137.6 21.2 137.6 21.2 137.6
2004-08-25 12:00:00 22.0 137.0 21.9 137.2 21.9 137.2 21.9 137.2
2004-08-25 18:00:00 22.8 136.6 22.5 136.8 22.5 136.8 22.5 136.7
2004-08-26 00:00:00 23.5 136.1 23.5 136.3 23.5 136.3 23.4 136.3
2004-08-26 06:00:00 24.2 135.7 24.2 135.9 24.2 135.7 24.1 135.6
2004-08-26 12:00:00 24.9 135.3 24.7 135.4 24.7 135.4 24.7 135.3
2004-08-26 18:00:00 25.6 135.0 25.5 135.1 25.5 135.1 25.5 135.1
2004-08-27 00:00:00 26.2 134.8 26.1 134.9 26.1 134.9 26.1 135.0
2004-08-27 06:00:00 26.6 134.6 26.6 134.6 26.6 134.5 26.5 134.5
2004-08-27 12:00:00 26.9 134.3 26.8 134.4 26.8 134.3 26.8 134.3
2004-08-27 18:00:00 27.1 134.1 27.1 134.2 27.0 134.2 27.1 134.2
2004-08-28 00:00:00 27.3 133.8 27.2 133.9 27.2 133.9 27.2 133.9
2004-08-28 06:00:00 27.4 133.4 27.4 133.6 27.3 133.6 27.4 133.6
2004-08-28 12:00:00 27.6 132.7 27.6 132.9 27.6 132.9 27.6 132.9
2004-08-28 18:00:00 27.8 132.0 27.8 132.1 27.8 132.1 27.8 132.1
2004-08-29 00:00:00 28.2 131.2 28.0 131.0 28.2 131.3 28.2 131.3
jtwc_wp tokyo cma hko
2004-08-29 06:00:00 28.7 130.5 28.7 130.3 28.8 130.4 28.8 130.5
2004-08-29 12:00:00 29.4 130.0 29.3 129.9 29.4 130.0 29.3 130.1
2004-08-29 18:00:00 30.3 129.8 30.3 129.8 30.2 129.8 30.2 129.8
2004-08-30 00:00:00 31.6 130.2 31.5 130.2 31.5 130.2 31.5 130.2
2004-08-30 06:00:00 33.4 131.3 33.5 131.0 33.5 131.1 33.5 131.1
2004-08-30 12:00:00 34.9 133.1 35.2 133.2 35.1 133.1 35.2 133.2
2004-08-30 18:00:00 37.1 135.7 37.5 136.2 37.1 136.0 37.5 136.1
2004-08-31 00:00:00 40.1 139.2 40.3 139.3 40.2 139.3 40.3 139.3
2004-08-31 06:00:00 43.1 143.1 43.9 143.2 43.7 143.1 43.1 142.6
2004-08-31 12:00:00 46.8 144.9 46.0 145.0 46.0 145.0
2004-08-31 18:00:00 48.1 145.5
2004-09-01 00:00:00 49.7 145.3
2004-09-01 06:00:00 50.7 145.7
2004-09-01 12:00:00 51.5 146.0
2004-09-01 18:00:00 52.4 146.5
2004-09-02 00:00:00 53.1 146.1
2004-09-02 06:00:00 53.9 145.7
2004-09-02 12:00:00 54.6 146.1
2004-09-02 18:00:00 55.8 146.6
2004-09-03 00:00:00 56.4 147.3
2004-09-03 06:00:00 57.2 148.2
2004-09-03 12:00:00 57.8 149.7
2004-09-03 18:00:00 58.6 150.9
2004-09-04 00:00:00 59.2 150.0
jtwc_wp tokyo cma hko
2004-09-04 06:00:00 60.1 149.3
2004-09-04 12:00:00 59.2 148.8
2004-09-04 18:00:00 58.8 149.8
2004-09-05 00:00:00 59.0 150.0
2004-09-05 06:00:00 59.1 150.7
2004-09-05 12:00:00 59.3 151.7

top of pageTrack Data:Intensity

jtwc_wp tokyo cma hko
Date Wind Pres Wind Pres Wind Pres Wind Pres
2004-08-17 00:00:00 15. 1006.
2004-08-17 06:00:00 15. 1006.
2004-08-17 12:00:00 15. 1006.
2004-08-17 18:00:00 20. 1004.
2004-08-18 00:00:00 20. 1004.
2004-08-18 06:00:00 25. 1002. 1004. 23. 1004.
2004-08-18 12:00:00 25. 1002. 1004. 23. 1004.
2004-08-18 18:00:00 30. 1000. 1002. 23. 1002. 25. 1000.
2004-08-19 00:00:00 30. 1000. 1002. 23. 1002. 30. 996.
2004-08-19 06:00:00 40. 994. 1000. 29. 1000. 35. 992.
2004-08-19 12:00:00 45. 991. 35. 996. 35. 996. 40. 988.
2004-08-19 18:00:00 55. 984. 45. 990. 45. 990. 45. 984.
2004-08-20 00:00:00 60. 980. 50. 990. 45. 990. 45. 984.
2004-08-20 06:00:00 60. 980. 50. 990. 45. 990. 45. 984.
2004-08-20 12:00:00 65. 976. 50. 985. 49. 990. 50. 980.
2004-08-20 18:00:00 65. 976. 50. 985. 49. 990. 50. 980.
2004-08-21 00:00:00 65. 976. 50. 985. 49. 990. 50. 980.
2004-08-21 06:00:00 70. 972. 50. 985. 54. 985. 55. 975.
2004-08-21 12:00:00 75. 967. 60. 975. 64. 975. 60. 970.
2004-08-21 18:00:00 90. 954. 75. 960. 68. 970. 70. 960.
2004-08-22 00:00:00 95. 949. 75. 955. 78. 960. 75. 955.
2004-08-22 06:00:00 115. 927. 80. 950. 78. 960. 80. 950.
2004-08-22 12:00:00 125. 916. 100. 930. 97. 945. 95. 935.
2004-08-22 18:00:00 145. 892. 110. 920. 107. 930. 110. 920.
2004-08-23 00:00:00 155. 879. 110. 920. 117. 920. 115. 915.
jtwc_wp tokyo cma hko
2004-08-23 06:00:00 155. 879. 110. 915. 117. 920. 115. 915.
2004-08-23 12:00:00 155. 879. 110. 915. 117. 920. 115. 915.
2004-08-23 18:00:00 155. 879. 110. 910. 117. 920. 115. 915.
2004-08-24 00:00:00 155. 879. 110. 910. 117. 920. 115. 915.
2004-08-24 06:00:00 150. 885. 110. 910. 117. 920. 120. 910.
2004-08-24 12:00:00 145. 892. 110. 910. 117. 920. 120. 910.
2004-08-24 18:00:00 155. 879. 110. 910. 117. 920. 120. 910.
2004-08-25 00:00:00 150. 885. 110. 910. 117. 920. 120. 910.
2004-08-25 06:00:00 140. 898. 110. 910. 117. 920. 120. 910.
2004-08-25 12:00:00 145. 892. 110. 910. 117. 920. 120. 910.
2004-08-25 18:00:00 145. 892. 110. 910. 117. 920. 120. 910.
2004-08-26 00:00:00 130. 910. 100. 915. 117. 920. 120. 910.
2004-08-26 06:00:00 125. 916. 100. 920. 107. 930. 115. 915.
2004-08-26 12:00:00 115. 927. 90. 925. 97. 940. 110. 920.
2004-08-26 18:00:00 115. 927. 80. 930. 97. 940. 105. 925.
2004-08-27 00:00:00 105. 938. 80. 940. 97. 940. 100. 930.
2004-08-27 06:00:00 100. 944. 80. 940. 97. 940. 100. 930.
2004-08-27 12:00:00 105. 938. 80. 940. 97. 940. 100. 930.
2004-08-27 18:00:00 115. 944. 90. 935. 87. 950. 100. 930.
2004-08-28 00:00:00 115. 927. 90. 935. 87. 950. 95. 935.
2004-08-28 06:00:00 115. 927. 90. 935. 87. 950. 95. 935.
2004-08-28 12:00:00 110. 933. 85. 940. 87. 950. 95. 935.
2004-08-28 18:00:00 110. 933. 85. 940. 87. 950. 95. 935.
2004-08-29 00:00:00 105. 938. 85. 940. 87. 950. 95. 935.
jtwc_wp tokyo cma hko
2004-08-29 06:00:00 105. 938. 85. 940. 87. 950. 95. 935.
2004-08-29 12:00:00 95. 949. 80. 940. 78. 960. 90. 940.
2004-08-29 18:00:00 95. 949. 80. 945. 78. 960. 85. 945.
2004-08-30 00:00:00 90. 954. 80. 950. 78. 960. 80. 950.
2004-08-30 06:00:00 85. 958. 70. 965. 68. 970. 75. 955.
2004-08-30 12:00:00 75. 967. 60. 970. 64. 975. 65. 965.
2004-08-30 18:00:00 70. 972. 60. 975. 58. 975. 60. 970.
2004-08-31 00:00:00 55. 984. 60. 975. 58. 975. 55. 975.
2004-08-31 06:00:00 50. 987. 976. 54. 975. 50. 980.
2004-08-31 12:00:00 40. 994. 976. 45. 975.
2004-08-31 18:00:00 980.
2004-09-01 00:00:00 980.
2004-09-01 06:00:00 976.
2004-09-01 12:00:00 984.
2004-09-01 18:00:00 984.
2004-09-02 00:00:00 986.
2004-09-02 06:00:00 988.
2004-09-02 12:00:00 990.
2004-09-02 18:00:00 990.
2004-09-03 00:00:00 990.
2004-09-03 06:00:00 990.
2004-09-03 12:00:00 992.
2004-09-03 18:00:00 994.
2004-09-04 00:00:00 994.
jtwc_wp tokyo cma hko
2004-09-04 06:00:00 996.
2004-09-04 12:00:00 998.
2004-09-04 18:00:00 998.
2004-09-05 00:00:00 1000.
2004-09-05 06:00:00 1002.
2004-09-05 12:00:00 1006.

top of page Links to source data

Source Source file Format
jtwc_wp bwp192004.txt ATCF
tokyo bst_all.txt:Line=53786:CHABA:416 JMA text table
cma CH2004BST.txt:Storm=21:Chaba CMA text table
hko tc-besttrack-data.txt:Line=30830:CHABA HKO Text table